createdAt,value
2022-12-09T00:01:24.509Z,9.88
2022-12-09T00:04:05.605Z,8.80
2022-12-09T00:06:38.082Z,10.18
2022-12-09T00:09:13.373Z,10.35
2022-12-09T00:11:48.114Z,9.88
2022-12-09T00:14:21.504Z,10.27
2022-12-09T00:17:01.227Z,11.07
2022-12-09T00:19:35.440Z,9.95
2022-12-09T00:22:08.710Z,8.75
2022-12-09T00:24:45.238Z,8.15
2022-12-09T00:27:22.117Z,10.18
2022-12-09T00:29:59.303Z,9.10
2022-12-09T00:32:57.940Z,8.65
2022-12-09T00:35:30.977Z,8.65
2022-12-09T00:38:12.396Z,10.65
2022-12-09T00:40:48.003Z,11.98
2022-12-09T00:43:29.746Z,11.02
2022-12-09T00:46:02.970Z,9.07
2022-12-09T00:48:44.085Z,9.73
2022-12-09T00:51:19.675Z,10.88
2022-12-09T00:53:56.239Z,8.40
2022-12-09T00:56:33.232Z,12.13
2022-12-09T00:59:07.116Z,8.73
2022-12-09T01:01:47.697Z,8.57
2022-12-09T01:04:28.030Z,10.43
2022-12-09T01:07:05.699Z,11.65
2022-12-09T01:09:43.533Z,11.10
2022-12-09T01:12:20.174Z,11.63
2022-12-09T01:14:55.235Z,8.60
2022-12-09T01:17:28.941Z,9.25
2022-12-09T01:20:23.752Z,10.27
2022-12-09T01:23:00.789Z,8.10
2022-12-09T01:26:29.370Z,7.80
2022-12-09T01:29:11.476Z,9.30
2022-12-09T01:31:58.210Z,8.77
2022-12-09T01:34:34.997Z,10.05
2022-12-09T01:38:07.996Z,8.70
2022-12-09T01:40:45.411Z,8.95
2022-12-09T01:43:23.247Z,9.98
2022-12-09T01:46:02.455Z,10.80
2022-12-09T01:48:47.217Z,10.35
2022-12-09T01:51:34.721Z,10.95
2022-12-09T01:54:13.385Z,13.30
2022-12-09T01:56:48.225Z,10.98
2022-12-09T01:59:22.329Z,12.38
2022-12-09T02:01:58.381Z,10.80
2022-12-09T02:04:32.771Z,13.63
2022-12-09T02:07:13.377Z,12.23
2022-12-09T02:09:54.901Z,12.75
2022-12-09T02:12:53.939Z,9.50
2022-12-09T02:15:29.407Z,10.50
2022-12-09T02:18:05.800Z,10.68
2022-12-09T02:20:41.698Z,13.82
2022-12-09T02:23:21.182Z,10.00
2022-12-09T02:26:06.249Z,9.52
2022-12-09T02:28:59.693Z,10.73
2022-12-09T02:32:05.362Z,13.23
2022-12-09T02:34:49.932Z,11.25
2022-12-09T02:37:32.972Z,12.82
2022-12-09T02:40:13.385Z,10.77
2022-12-09T02:42:55.322Z,10.60
2022-12-09T02:45:35.242Z,10.52
2022-12-09T02:48:12.184Z,11.50
2022-12-09T02:50:55.345Z,11.20
2022-12-09T02:53:49.042Z,12.35
2022-12-09T02:56:31.114Z,11.63
2022-12-09T02:59:08.454Z,12.05
2022-12-09T03:01:49.386Z,12.45
2022-12-09T03:04:23.850Z,11.10
2022-12-09T03:07:17.613Z,12.40
2022-12-09T03:09:54.723Z,10.23
2022-12-09T03:12:36.617Z,9.10
2022-12-09T03:15:11.360Z,11.60
2022-12-09T03:17:45.393Z,11.45
2022-12-09T03:20:17.950Z,13.48
2022-12-09T03:22:51.950Z,10.02
2022-12-09T03:26:24.065Z,11.15
2022-12-09T03:28:57.336Z,10.65
2022-12-09T03:31:31.679Z,9.80
2022-12-09T03:34:06.306Z,9.38
2022-12-09T03:36:39.948Z,11.68
2022-12-09T03:39:16.264Z,11.80
2022-12-09T03:41:50.406Z,9.25
2022-12-09T03:44:25.423Z,9.10
2022-12-09T03:46:54.981Z,9.88
2022-12-09T03:49:24.267Z,9.43
2022-12-09T03:51:59.059Z,9.90
2022-12-09T03:54:34.006Z,10.07
2022-12-09T03:57:03.674Z,9.00
2022-12-09T03:59:36.134Z,9.90
2022-12-09T04:02:07.202Z,9.32
2022-12-09T04:05:41.483Z,9.02
2022-12-09T04:08:10.785Z,10.10
2022-12-09T04:10:41.603Z,12.20
2022-12-09T04:13:10.649Z,9.20
2022-12-09T04:15:39.897Z,9.65
2022-12-09T04:18:09.137Z,9.15
2022-12-09T04:20:38.520Z,11.30
2022-12-09T04:23:08.063Z,12.43
2022-12-09T04:25:41.775Z,9.30
2022-12-09T04:28:12.146Z,9.27
2022-12-09T04:30:45.829Z,9.38
2022-12-09T04:33:15.235Z,9.70
2022-12-09T04:35:44.309Z,9.63
2022-12-09T04:38:13.336Z,9.80
2022-12-09T04:40:42.352Z,10.18
2022-12-09T04:43:12.785Z,12.32
2022-12-09T04:45:44.411Z,10.68
2022-12-09T04:48:13.778Z,10.05
2022-12-09T04:50:43.528Z,10.05
2022-12-09T04:53:12.670Z,9.15
2022-12-09T04:55:41.646Z,10.18
2022-12-09T04:58:12.346Z,12.18
2022-12-09T05:00:41.587Z,11.88
2022-12-09T05:03:10.705Z,9.68
2022-12-09T05:05:41.935Z,8.57
2022-12-09T05:08:11.588Z,11.50
2022-12-09T05:10:43.056Z,10.05
2022-12-09T05:13:13.647Z,8.20
2022-12-09T05:15:42.909Z,9.77
2022-12-09T05:18:12.598Z,7.75
2022-12-09T05:20:46.580Z,9.93
2022-12-09T05:23:15.568Z,10.48
2022-12-09T05:25:44.430Z,8.48
2022-12-09T05:28:15.022Z,8.02
2022-12-09T05:30:43.981Z,9.65
2022-12-09T05:33:13.775Z,10.50
2022-12-09T05:35:52.592Z,10.15
2022-12-09T05:38:32.433Z,10.20
2022-12-09T05:41:09.839Z,8.10
2022-12-09T05:43:43.583Z,9.52
2022-12-09T05:46:19.348Z,7.82
2022-12-09T05:48:53.227Z,9.45
2022-12-09T05:51:27.867Z,9.75
2022-12-09T05:54:04.515Z,9.10
2022-12-09T05:56:35.509Z,9.15
2022-12-09T05:59:12.673Z,11.27
2022-12-09T06:01:49.448Z,12.05
2022-12-09T06:04:20.327Z,8.85
2022-12-09T06:06:51.792Z,8.98
2022-12-09T06:09:41.070Z,11.05
2022-12-09T06:12:14.101Z,10.15
2022-12-09T06:14:52.742Z,8.98
2022-12-09T06:17:24.996Z,10.35
2022-12-09T06:19:54.978Z,9.60
2022-12-09T06:22:28.130Z,10.50
2022-12-09T06:25:00.394Z,10.25
2022-12-09T06:27:33.876Z,8.52
2022-12-09T06:30:07.730Z,10.85
2022-12-09T06:32:41.631Z,13.70
2022-12-09T06:35:15.450Z,10.23
2022-12-09T06:37:47.621Z,11.50
2022-12-09T06:40:20.901Z,10.93
2022-12-09T06:42:53.135Z,13.23
2022-12-09T06:45:27.082Z,12.23
2022-12-09T06:48:01.222Z,16.83
2022-12-09T06:50:34.915Z,14.65
2022-12-09T06:53:12.510Z,13.23
2022-12-09T06:55:42.867Z,13.23
2022-12-09T06:58:15.091Z,14.65
2022-12-09T07:00:48.088Z,13.15
2022-12-09T07:03:20.227Z,15.25
2022-12-09T07:05:51.074Z,14.50
2022-12-09T07:08:22.692Z,12.93
2022-12-09T07:10:57.027Z,11.63
2022-12-09T07:13:31.335Z,13.18
2022-12-09T07:16:04.129Z,13.63
2022-12-09T07:18:35.319Z,15.20
2022-12-09T07:21:11.928Z,14.98
2022-12-09T07:23:45.452Z,13.73
2022-12-09T07:26:17.135Z,17.52
2022-12-09T07:28:51.266Z,14.23
2022-12-09T07:31:26.802Z,15.65
2022-12-09T07:34:02.108Z,17.52
2022-12-09T07:36:34.396Z,15.20
2022-12-09T07:39:08.453Z,14.35
2022-12-09T07:41:41.526Z,16.92
2022-12-09T07:44:13.581Z,14.00
2022-12-09T07:46:48.906Z,16.92
2022-12-09T07:49:20.153Z,14.88
2022-12-09T07:51:52.184Z,15.60
2022-12-09T07:54:25.251Z,14.50
2022-12-09T07:56:58.555Z,15.60
2022-12-09T07:59:30.779Z,19.33
2022-12-09T08:02:06.693Z,14.02
2022-12-09T08:04:39.504Z,15.15
2022-12-09T08:07:11.593Z,17.38
2022-12-09T08:09:45.831Z,15.95
2022-12-09T08:12:18.448Z,14.40
2022-12-09T08:14:48.813Z,12.82
2022-12-09T08:17:25.997Z,17.67
2022-12-09T08:19:58.188Z,18.20
2022-12-09T08:22:29.072Z,17.98
2022-12-09T08:25:02.700Z,16.08
2022-12-09T08:27:35.145Z,16.75
2022-12-09T08:30:08.886Z,17.48
2022-12-09T08:32:44.162Z,16.73
2022-12-09T08:35:17.793Z,18.58
2022-12-09T08:37:49.127Z,17.98
2022-12-09T08:40:27.160Z,16.45
2022-12-09T08:42:58.195Z,15.15
2022-12-09T08:45:29.572Z,17.90
2022-12-09T08:48:02.134Z,18.50
2022-12-09T08:50:33.025Z,22.20
2022-12-09T08:53:04.727Z,19.77
2022-12-09T08:55:40.203Z,19.13
2022-12-09T08:58:13.502Z,18.75
2022-12-09T09:00:48.407Z,20.90
2022-12-09T09:03:21.868Z,19.00
2022-12-09T09:05:54.336Z,21.75
2022-12-09T09:08:26.688Z,21.60
2022-12-09T09:11:01.780Z,23.17
2022-12-09T09:13:35.385Z,18.17
2022-12-09T09:16:08.592Z,18.40
2022-12-09T09:18:41.268Z,20.33
2022-12-09T09:21:20.370Z,23.25
2022-12-09T09:23:50.217Z,17.63
2022-12-09T09:26:21.509Z,18.98
2022-12-09T09:28:51.121Z,18.42
2022-12-09T09:31:22.330Z,19.70
2022-12-09T09:33:53.426Z,18.65
2022-12-09T09:36:25.071Z,17.65
2022-12-09T09:38:56.683Z,17.25
2022-12-09T09:41:43.748Z,17.08
2022-12-09T09:44:21.823Z,16.73
2022-12-09T09:46:52.942Z,17.55
2022-12-09T09:49:32.037Z,18.27
2022-12-09T09:52:07.396Z,15.50
2022-12-09T09:54:37.132Z,15.57
2022-12-09T09:57:14.125Z,14.23
2022-12-09T10:00:10.106Z,18.33
2022-12-09T10:02:59.455Z,16.88
2022-12-09T10:05:34.346Z,15.13
2022-12-09T10:08:23.238Z,14.23
2022-12-09T10:11:00.796Z,13.30
2022-12-09T10:13:45.232Z,12.65
2022-12-09T10:16:18.991Z,16.25
2022-12-09T10:19:07.981Z,14.45
2022-12-09T10:21:44.619Z,13.68
2022-12-09T10:24:25.039Z,15.50
2022-12-09T10:27:02.892Z,13.15
2022-12-09T10:29:51.459Z,14.30
2022-12-09T10:32:23.081Z,15.23
2022-12-09T10:34:52.479Z,16.70
2022-12-09T10:37:28.316Z,15.20
2022-12-09T10:40:06.511Z,15.63
2022-12-09T10:43:02.077Z,13.65
2022-12-09T10:45:52.441Z,13.55
2022-12-09T10:48:32.996Z,18.20
2022-12-09T10:51:06.100Z,16.50
2022-12-09T10:53:38.277Z,14.07
2022-12-09T10:56:08.676Z,16.33
2022-12-09T10:58:38.022Z,18.33
2022-12-09T11:01:11.114Z,18.35
2022-12-09T11:03:53.616Z,15.98
2022-12-09T11:06:27.348Z,18.33
2022-12-09T11:09:03.432Z,18.05
2022-12-09T11:11:47.258Z,19.67
2022-12-09T11:14:30.615Z,16.52
2022-12-09T11:17:15.918Z,19.75
2022-12-09T11:19:50.486Z,16.73
2022-12-09T11:22:40.780Z,16.60
2022-12-09T11:25:34.688Z,17.55
2022-12-09T11:28:09.507Z,18.10
2022-12-09T11:31:26.998Z,16.83
2022-12-09T11:33:55.691Z,14.23
2022-12-09T11:36:31.269Z,14.88
2022-12-09T11:39:24.367Z,18.98
2022-12-09T11:42:19.406Z,16.92
2022-12-09T11:44:59.759Z,14.18
2022-12-09T11:48:13.613Z,15.77
2022-12-09T11:50:32.711Z,19.23
2022-12-09T11:53:26.394Z,18.40
2022-12-09T11:56:04.551Z,24.08
2022-12-09T11:58:45.723Z,19.10
2022-12-09T12:01:26.084Z,20.73
2022-12-09T12:04:01.373Z,19.15
2022-12-09T12:07:23.926Z,18.35
2022-12-09T12:09:59.489Z,23.67
2022-12-09T12:12:40.279Z,24.88
2022-12-09T12:15:20.466Z,22.13
2022-12-09T12:17:58.488Z,20.77
2022-12-09T12:20:43.270Z,22.38
2022-12-09T12:23:31.524Z,20.42
2022-12-09T12:26:08.237Z,21.08
2022-12-09T12:29:08.546Z,21.05
2022-12-09T12:32:13.231Z,20.30
2022-12-09T12:35:00.113Z,20.38
2022-12-09T12:37:48.463Z,15.50
2022-12-09T12:40:29.752Z,17.38
2022-12-09T12:43:30.610Z,18.13
2022-12-09T12:46:22.522Z,19.60
2022-12-09T12:49:19.571Z,18.95
2022-12-09T12:52:01.696Z,18.52
2022-12-09T12:54:47.505Z,18.60
2022-12-09T12:57:39.967Z,17.83
2022-12-09T13:00:17.046Z,17.10
2022-12-09T13:03:02.010Z,15.13
2022-12-09T13:05:56.083Z,14.82
2022-12-09T13:08:43.079Z,18.08
2022-12-09T13:11:32.354Z,14.77
2022-12-09T13:14:10.699Z,16.20
2022-12-09T13:16:52.055Z,15.07
2022-12-09T13:19:31.199Z,13.05
2022-12-09T13:22:12.525Z,12.65
2022-12-09T13:24:53.068Z,13.13
2022-12-09T13:27:52.550Z,13.05
2022-12-09T13:30:27.225Z,12.90
2022-12-09T13:33:28.079Z,13.18
2022-12-09T13:36:10.875Z,9.98
2022-12-09T13:38:53.445Z,18.13
2022-12-09T13:45:30.917Z,11.88
2022-12-09T13:48:16.628Z,9.07
2022-12-09T13:51:08.058Z,9.98
2022-12-09T13:54:04.360Z,7.85
2022-12-09T13:56:42.339Z,8.23
2022-12-09T13:59:46.504Z,7.53
2022-12-09T14:02:27.280Z,8.57
2022-12-09T14:05:23.303Z,9.00
2022-12-09T14:08:10.020Z,11.35
2022-12-09T14:10:49.691Z,10.20
2022-12-09T14:13:31.888Z,9.65
2022-12-09T14:16:38.773Z,9.77
2022-12-09T14:19:47.926Z,11.65
2022-12-09T14:22:39.642Z,9.50
2022-12-09T14:25:51.447Z,9.90
2022-12-09T14:29:01.949Z,13.85
2022-12-09T14:32:02.397Z,10.57
2022-12-09T14:34:48.216Z,12.75
2022-12-09T14:37:57.758Z,10.05
2022-12-09T14:40:41.324Z,11.52
2022-12-09T14:43:33.313Z,8.27
2022-12-09T14:46:21.227Z,9.50
2022-12-09T14:49:01.595Z,10.48
2022-12-09T14:51:42.008Z,11.80
2022-12-09T14:54:21.374Z,12.13
2022-12-09T14:57:01.836Z,8.93
2022-12-09T14:59:52.810Z,12.65
2022-12-09T15:02:36.989Z,9.23
2022-12-09T15:05:25.061Z,13.45
2022-12-09T15:08:00.186Z,9.85
2022-12-09T15:10:37.644Z,8.73
2022-12-09T15:13:15.366Z,8.75
2022-12-09T15:15:51.503Z,8.88
2022-12-09T15:18:25.378Z,8.63
2022-12-09T15:21:02.929Z,8.13
2022-12-09T15:23:35.808Z,10.25
2022-12-09T15:26:19.054Z,9.68
2022-12-09T15:28:53.604Z,8.73
2022-12-09T15:31:37.032Z,8.90
2022-12-09T15:34:26.427Z,10.30
2022-12-09T15:37:08.720Z,7.65
2022-12-09T15:39:55.304Z,8.23
2022-12-09T15:42:30.692Z,10.73
2022-12-09T15:45:10.593Z,8.93
2022-12-09T15:47:48.710Z,8.52
2022-12-09T15:50:30.150Z,9.65
2022-12-09T15:53:12.094Z,9.80
2022-12-09T15:55:45.560Z,11.27
2022-12-09T15:58:20.227Z,8.57
2022-12-09T16:00:52.786Z,8.35
2022-12-09T16:03:27.441Z,8.88
2022-12-09T16:05:59.865Z,8.68
2022-12-09T16:08:37.904Z,7.10
2022-12-09T16:11:08.095Z,8.55
2022-12-09T16:13:38.513Z,9.73
2022-12-09T16:16:28.880Z,8.00
2022-12-09T16:18:59.882Z,8.45
2022-12-09T16:21:31.166Z,10.93
2022-12-09T16:24:14.575Z,9.85
2022-12-09T16:26:49.236Z,9.25
2022-12-09T16:29:25.682Z,10.32
2022-12-09T16:32:21.511Z,9.75
2022-12-09T16:34:54.358Z,10.35
2022-12-09T16:37:37.642Z,10.88
2022-12-09T16:40:56.614Z,8.00
2022-12-09T16:43:28.253Z,10.25
2022-12-09T16:46:00.292Z,11.38
2022-12-09T16:48:31.692Z,9.05
2022-12-09T16:51:08.066Z,13.48
2022-12-09T16:53:44.477Z,8.88
2022-12-09T16:56:22.012Z,9.98
2022-12-09T16:58:51.389Z,8.35
2022-12-09T17:01:23.552Z,10.98
2022-12-09T17:03:57.883Z,17.75
2022-12-09T17:06:27.562Z,25.30
2022-12-09T17:08:57.433Z,20.27
2022-12-09T17:11:28.477Z,11.23
2022-12-09T17:13:57.984Z,12.38
2022-12-09T17:16:34.392Z,12.52
2022-12-09T17:19:07.732Z,11.07
2022-12-09T17:21:40.791Z,12.98
2022-12-09T17:24:13.026Z,11.60
2022-12-09T17:26:43.972Z,8.82
2022-12-09T17:29:13.333Z,9.45
2022-12-09T17:31:43.281Z,9.45
2022-12-09T17:34:14.359Z,8.18
2022-12-09T17:36:44.369Z,9.20
2022-12-09T17:39:15.354Z,10.85
2022-12-09T17:41:46.761Z,10.45
2022-12-09T17:44:17.044Z,11.70
2022-12-09T17:46:46.568Z,9.82
2022-12-09T17:49:17.804Z,9.20
2022-12-09T17:51:47.534Z,8.85
2022-12-09T17:54:16.895Z,8.80
2022-12-09T17:56:49.254Z,8.52
2022-12-09T17:59:19.929Z,6.55
2022-12-09T18:01:49.936Z,7.93
2022-12-09T18:04:19.726Z,7.70
2022-12-09T18:06:50.103Z,9.98
2022-12-09T18:09:22.657Z,8.50
2022-12-09T18:12:45.636Z,8.93
2022-12-09T18:15:16.961Z,9.48
2022-12-09T18:17:46.766Z,11.95
2022-12-09T18:20:17.211Z,12.77
2022-12-09T18:22:47.000Z,11.90
2022-12-09T18:25:16.488Z,9.52
2022-12-09T18:27:47.199Z,10.63
2022-12-09T18:30:18.560Z,9.88
2022-12-09T18:32:48.529Z,12.27
2022-12-09T18:35:18.302Z,9.65
2022-12-09T18:37:48.291Z,8.02
2022-12-09T18:40:21.609Z,6.90
2022-12-09T18:42:52.218Z,8.00
2022-12-09T18:45:23.512Z,6.65
2022-12-09T18:47:53.545Z,7.45
2022-12-09T18:50:23.697Z,7.88
2022-12-09T18:52:53.240Z,7.63
2022-12-09T18:55:22.921Z,8.27
2022-12-09T18:57:54.003Z,8.15
2022-12-09T19:00:26.444Z,9.75
2022-12-09T19:02:56.596Z,9.85
2022-12-09T19:05:26.545Z,9.60
2022-12-09T19:07:56.122Z,10.73
2022-12-09T19:10:29.014Z,11.00
2022-12-09T19:12:58.566Z,10.60
2022-12-09T19:15:59.435Z,17.63
2022-12-09T19:18:29.329Z,8.82
2022-12-09T19:21:09.409Z,11.40
2022-12-09T19:23:41.438Z,10.10
2022-12-09T19:26:15.446Z,8.40
2022-12-09T19:28:50.625Z,10.23
2022-12-09T19:31:28.943Z,8.10
2022-12-09T19:34:01.711Z,9.90
2022-12-09T19:36:34.126Z,8.13
2022-12-09T19:39:06.399Z,8.57
2022-12-09T19:41:36.220Z,6.78
2022-12-09T19:44:08.122Z,6.18
2022-12-09T19:46:39.519Z,7.40
2022-12-09T19:49:10.311Z,6.10
2022-12-09T19:51:40.374Z,6.82
2022-12-09T19:54:10.690Z,7.25
2022-12-09T19:56:42.115Z,8.02
2022-12-09T19:59:12.424Z,6.80
2022-12-09T20:01:46.266Z,5.85
2022-12-09T20:07:08.646Z,7.90
2022-12-09T20:09:40.350Z,9.60
2022-12-09T20:12:10.114Z,9.18
2022-12-09T20:14:41.264Z,8.07
2022-12-09T20:17:12.541Z,8.73
2022-12-09T20:19:41.987Z,9.30
2022-12-09T20:22:13.252Z,9.30
2022-12-09T20:24:43.715Z,7.10
2022-12-09T20:27:15.228Z,8.18
2022-12-09T20:29:44.984Z,8.15
2022-12-09T20:32:18.535Z,9.88
2022-12-09T20:34:49.987Z,8.63
2022-12-09T20:37:20.576Z,6.00
2022-12-09T20:39:51.533Z,9.13
2022-12-09T20:42:21.064Z,8.80
2022-12-09T20:44:50.609Z,7.90
2022-12-09T20:47:21.725Z,8.10
2022-12-09T20:49:51.728Z,10.70
2022-12-09T20:52:21.374Z,6.10
2022-12-09T20:54:50.924Z,8.50
2022-12-09T20:57:21.041Z,7.25
2022-12-09T20:59:50.636Z,7.70
2022-12-09T21:02:22.051Z,8.13
2022-12-09T21:04:51.708Z,9.18
2022-12-09T21:07:21.871Z,9.65
2022-12-09T21:09:51.955Z,7.28
2022-12-09T21:12:21.584Z,8.80
2022-12-09T21:14:51.289Z,8.55
2022-12-09T21:17:22.155Z,9.40
2022-12-09T21:19:50.909Z,8.57
2022-12-09T21:22:19.690Z,9.23
2022-12-09T21:24:48.831Z,9.27
2022-12-09T21:27:23.496Z,6.38
2022-12-09T21:29:56.972Z,6.63
2022-12-09T21:32:37.477Z,6.90
2022-12-09T21:35:11.433Z,8.10
2022-12-09T21:37:43.936Z,10.05
2022-12-09T21:40:22.483Z,8.13
2022-12-09T21:42:54.246Z,8.75
2022-12-09T21:45:26.926Z,8.10
2022-12-09T21:47:59.619Z,7.03
2022-12-09T21:50:32.028Z,8.63
2022-12-09T21:53:08.672Z,8.40
2022-12-09T21:55:39.676Z,10.00
2022-12-09T21:58:13.367Z,8.68
2022-12-09T22:00:48.928Z,7.53
2022-12-09T22:03:37.372Z,11.30
2022-12-09T22:06:12.632Z,8.25
2022-12-09T22:08:54.279Z,7.57
2022-12-09T22:11:30.550Z,7.95
2022-12-09T22:14:05.743Z,7.93
2022-12-09T22:16:41.940Z,8.15
2022-12-09T22:19:23.096Z,7.78
2022-12-09T22:22:02.383Z,8.55
2022-12-09T22:24:53.824Z,8.98
2022-12-09T22:27:28.139Z,7.93
2022-12-09T22:30:04.299Z,9.52
2022-12-09T22:32:39.445Z,7.05
2022-12-09T22:35:23.570Z,6.82
2022-12-09T22:37:53.682Z,6.13
2022-12-09T22:40:26.310Z,7.53
2022-12-09T22:43:03.519Z,6.55
2022-12-09T22:45:34.395Z,8.43
2022-12-09T22:48:08.467Z,8.70
2022-12-09T22:50:43.362Z,11.52
2022-12-09T22:53:16.731Z,7.72
2022-12-09T22:55:53.186Z,8.60
2022-12-09T22:58:23.675Z,10.43
2022-12-09T23:00:56.606Z,10.23
2022-12-09T23:03:28.693Z,10.00
2022-12-09T23:06:07.224Z,8.38
2022-12-09T23:08:46.643Z,8.88
2022-12-09T23:11:23.561Z,7.65
2022-12-09T23:13:55.379Z,8.15
2022-12-09T23:16:27.909Z,8.98
2022-12-09T23:19:11.239Z,7.30
2022-12-09T23:21:48.680Z,6.88
2022-12-09T23:24:31.384Z,9.80
2022-12-09T23:27:12.153Z,8.77
2022-12-09T23:29:58.772Z,8.43
2022-12-09T23:32:35.772Z,9.68
2022-12-09T23:35:08.295Z,8.48
2022-12-09T23:37:41.824Z,8.68
2022-12-09T23:40:15.548Z,7.78
2022-12-09T23:42:47.527Z,9.98
2022-12-09T23:45:42.006Z,6.95
2022-12-09T23:48:17.237Z,8.10
2022-12-09T23:50:54.448Z,9.30
2022-12-09T23:53:31.266Z,8.25
2022-12-09T23:56:09.226Z,9.88
2022-12-09T23:58:44.213Z,9.32
